Norwalk, Connecticut
Current Conditions -  °F | °C
As of 7:52 PM on Saturday 25 Oct 2014 (Local Time) from KBDR Reporting Station
Few Clouds Few Clouds  
Wind Chill: 17°   Ceiling: Unl
Heat Index: 17°   Visibility: 10mi
Dew Point: 11°   Wind: 10mph
Humidity: 65%   Direction: 220°SW
Pressure: 29.62"   Gusts: NA
Location:  41.11°N, 73.41°W
Report Text: KBDR 252352Z 22009KT 10SM FEW085 17/11 A2962 RMK AO2 SLP029 T01720106 10183 20161 56010
Loading
Personal Weather Stations






























Interactive Weather Map
Tropical Storm Tracking
New forecast layout! Learn more

10-Day Weather Forecast

Advertisements
Track Severe Weather on mobile